createdAt,value
2023-02-12T00:01:23.244Z,102086.97
2023-02-12T00:03:50.639Z,102084.16
2023-02-12T00:06:18.193Z,102089.53
2023-02-12T00:08:50.276Z,102090.41
2023-02-12T00:11:18.256Z,102099.47
2023-02-12T00:13:45.604Z,102099.13
2023-02-12T00:16:14.331Z,102100.44
2023-02-12T00:18:41.725Z,102088.72
2023-02-12T00:21:09.633Z,102088.50
2023-02-12T00:23:37.644Z,102097.94
2023-02-12T00:26:08.120Z,102105.13
2023-02-12T00:28:35.502Z,102103.50
2023-02-12T00:31:05.864Z,102101.72
2023-02-12T00:33:33.178Z,102107.78
2023-02-12T00:36:00.465Z,102103.44
2023-02-12T00:38:27.734Z,102101.00
2023-02-12T00:40:55.103Z,102107.03
2023-02-12T00:43:23.707Z,102098.22
2023-02-12T00:45:51.049Z,102106.09
2023-02-12T00:48:19.436Z,102105.13
2023-02-12T00:50:47.253Z,102105.25
2023-02-12T00:53:15.029Z,102103.41
2023-02-12T00:55:42.367Z,102111.44
2023-02-12T00:58:10.013Z,102104.19
2023-02-12T01:00:38.602Z,102105.09
2023-02-12T01:03:06.437Z,102108.53
2023-02-12T01:05:34.123Z,102121.31
2023-02-12T01:08:01.404Z,102119.09
2023-02-12T01:10:29.237Z,102123.66
2023-02-12T01:12:56.560Z,102132.72
2023-02-12T01:15:24.146Z,102125.00
2023-02-12T01:17:53.762Z,102128.97
2023-02-12T01:20:22.098Z,102136.16
2023-02-12T01:22:49.385Z,102126.66
2023-02-12T01:25:18.751Z,102123.78
2023-02-12T01:27:47.689Z,102130.19
2023-02-12T01:30:22.006Z,102123.66
2023-02-12T01:32:49.341Z,102122.16
2023-02-12T01:35:18.463Z,102126.53
2023-02-12T01:37:45.707Z,102123.13
2023-02-12T01:40:15.713Z,102123.69
2023-02-12T01:42:43.050Z,102123.16
2023-02-12T01:45:41.043Z,102117.47
2023-02-12T01:48:08.423Z,102118.34
2023-02-12T01:50:37.019Z,102128.88
2023-02-12T01:53:04.336Z,102121.63
2023-02-12T01:55:31.639Z,102130.72
2023-02-12T01:57:58.921Z,102131.56
2023-02-12T02:00:26.302Z,102130.16
2023-02-12T02:02:54.903Z,102131.69
2023-02-12T02:05:25.510Z,102131.03
2023-02-12T02:07:54.974Z,102136.28
2023-02-12T02:10:22.297Z,102126.78
2023-02-12T02:13:07.288Z,102135.31
2023-02-12T02:15:35.454Z,102131.06
2023-02-12T02:18:09.015Z,102129.97
2023-02-12T02:20:56.042Z,102128.78
2023-02-12T02:23:41.920Z,102127.44
2023-02-12T02:26:24.132Z,102131.53
2023-02-12T02:29:06.446Z,102126.13
2023-02-12T02:31:40.407Z,102129.63
2023-02-12T02:34:13.257Z,102129.94
2023-02-12T02:36:58.094Z,102121.72
2023-02-12T02:39:29.950Z,102131.66
2023-02-12T02:42:00.885Z,102138.09
2023-02-12T02:44:30.140Z,102135.28
2023-02-12T02:46:59.366Z,102130.66
2023-02-12T02:49:31.312Z,102137.94
2023-02-12T02:52:02.322Z,102139.56
2023-02-12T02:54:32.182Z,102143.22
2023-02-12T02:57:02.556Z,102142.09
2023-02-12T02:59:34.108Z,102149.03
2023-02-12T03:02:05.613Z,102151.59
2023-02-12T03:04:36.331Z,102145.59
2023-02-12T03:07:05.340Z,102160.41
2023-02-12T03:09:35.636Z,102164.88
2023-02-12T03:12:06.268Z,102164.81
2023-02-12T03:14:36.014Z,102164.09
2023-02-12T03:17:07.649Z,102166.69
2023-02-12T03:19:37.063Z,102178.25
2023-02-12T03:22:05.681Z,102169.44
2023-02-12T03:24:36.414Z,102173.28
2023-02-12T03:27:06.454Z,102177.81
2023-02-12T03:29:33.830Z,102176.81
2023-02-12T03:32:09.704Z,102182.03
2023-02-12T03:34:42.991Z,102191.06
2023-02-12T03:37:12.034Z,102193.47
2023-02-12T03:39:44.647Z,102201.09
2023-02-12T03:42:14.867Z,102204.44
2023-02-12T03:44:48.351Z,102206.25
2023-02-12T03:47:21.993Z,102209.16
2023-02-12T03:49:53.209Z,102214.47
2023-02-12T03:52:20.595Z,102216.34
2023-02-12T03:54:48.001Z,102217.97
2023-02-12T03:57:18.187Z,102226.09
2023-02-12T03:59:47.198Z,102233.03
2023-02-12T04:02:16.057Z,102231.44
2023-02-12T04:04:44.932Z,102235.91
2023-02-12T04:07:12.963Z,102238.66
2023-02-12T04:09:40.400Z,102243.91
2023-02-12T04:12:14.505Z,102244.56
2023-02-12T04:14:45.114Z,102241.00
2023-02-12T04:17:15.752Z,102242.69
2023-02-12T04:19:51.282Z,102247.31
2023-02-12T04:22:27.236Z,102249.16
2023-02-12T04:25:00.596Z,102244.63
2023-02-12T04:27:33.574Z,102251.91
2023-02-12T04:30:05.320Z,102243.69
2023-02-12T04:32:36.449Z,102253.34
2023-02-12T04:35:08.973Z,102250.84
2023-02-12T04:37:39.583Z,102247.53
2023-02-12T04:40:08.756Z,102243.78
2023-02-12T04:42:42.418Z,102252.06
2023-02-12T04:45:10.591Z,102245.63
2023-02-12T04:47:37.883Z,102250.88
2023-02-12T04:50:07.127Z,102257.63
2023-02-12T04:52:34.418Z,102259.25
2023-02-12T04:55:01.731Z,102250.25
2023-02-12T04:57:29.049Z,102258.09
2023-02-12T04:59:56.306Z,102261.16
2023-02-12T05:02:23.849Z,102258.19
2023-02-12T05:04:51.556Z,102257.44
2023-02-12T05:07:20.193Z,102265.72
2023-02-12T05:09:47.534Z,102260.28
2023-02-12T05:12:14.789Z,102263.84
2023-02-12T05:14:42.122Z,102266.63
2023-02-12T05:17:09.457Z,102261.25
2023-02-12T05:19:36.745Z,102265.72
2023-02-12T05:22:04.044Z,102270.22
2023-02-12T05:24:32.634Z,102264.84
2023-02-12T05:26:59.910Z,102272.50
2023-02-12T05:29:27.263Z,102278.56
2023-02-12T05:31:54.609Z,102275.06
2023-02-12T05:34:21.913Z,102283.16
2023-02-12T05:36:49.266Z,102279.50
2023-02-12T05:39:16.705Z,102278.13
2023-02-12T05:41:45.328Z,102284.31
2023-02-12T05:44:14.987Z,102282.50
2023-02-12T05:46:42.810Z,102284.13
2023-02-12T05:49:10.516Z,102285.06
2023-02-12T05:51:38.515Z,102276.97
2023-02-12T05:54:07.110Z,102285.16
2023-02-12T05:56:35.270Z,102289.44
2023-02-12T05:59:05.400Z,102286.63
2023-02-12T06:01:33.932Z,102293.69
2023-02-12T06:04:01.551Z,102287.84
2023-02-12T06:06:29.137Z,102297.53
2023-02-12T06:08:56.471Z,102299.25
2023-02-12T06:11:23.954Z,102295.44
2023-02-12T06:13:51.305Z,102299.34
2023-02-12T06:16:22.422Z,102307.91
2023-02-12T06:18:49.917Z,102313.97
2023-02-12T06:21:17.737Z,102313.91
2023-02-12T06:23:45.049Z,102313.97
2023-02-12T06:26:12.736Z,102320.38
2023-02-12T06:28:40.144Z,102321.06
2023-02-12T06:31:17.854Z,102322.88
2023-02-12T06:33:46.532Z,102326.38
2023-02-12T06:36:13.821Z,102334.44
2023-02-12T06:38:41.074Z,102336.22
2023-02-12T06:41:08.351Z,102339.78
2023-02-12T06:43:35.601Z,102350.38
2023-02-12T06:46:03.390Z,102345.78
2023-02-12T06:48:30.756Z,102350.25
2023-02-12T06:51:04.610Z,102366.31
2023-02-12T06:53:31.911Z,102363.81
2023-02-12T06:56:00.881Z,102366.28
2023-02-12T06:58:28.226Z,102367.81
2023-02-12T07:00:55.605Z,102365.13
2023-02-12T07:03:22.878Z,102373.84
2023-02-12T07:05:50.148Z,102372.06
2023-02-12T07:08:18.762Z,102376.34
2023-02-12T07:10:49.230Z,102372.09
2023-02-12T07:13:16.525Z,102378.13
2023-02-12T07:15:43.789Z,102375.47
2023-02-12T07:18:11.058Z,102386.19
2023-02-12T07:20:38.325Z,102380.66
2023-02-12T07:23:05.651Z,102388.84
2023-02-12T07:25:34.989Z,102381.69
2023-02-12T07:28:02.328Z,102391.28
2023-02-12T07:30:29.803Z,102392.97
2023-02-12T07:32:57.145Z,102386.78
2023-02-12T07:35:24.424Z,102392.06
2023-02-12T07:37:51.754Z,102391.16
2023-02-12T07:40:19.128Z,102394.59
2023-02-12T07:42:53.471Z,102396.50
2023-02-12T07:45:20.750Z,102394.72
2023-02-12T07:47:48.032Z,102403.50
2023-02-12T07:50:15.413Z,102405.25
2023-02-12T07:52:42.694Z,102405.94
2023-02-12T07:55:10.254Z,102394.38
2023-02-12T07:57:37.860Z,102408.78
2023-02-12T08:00:07.254Z,102415.16
2023-02-12T08:02:34.650Z,102411.44
2023-02-12T08:05:01.933Z,102409.56
2023-02-12T08:07:29.201Z,102417.56
2023-02-12T08:09:56.726Z,102422.78
2023-02-12T08:12:24.626Z,102416.19
2023-02-12T08:14:51.915Z,102416.16
2023-02-12T08:17:20.506Z,102408.81
2023-02-12T08:19:47.770Z,102412.22
2023-02-12T08:22:15.147Z,102419.50
2023-02-12T08:24:43.280Z,102421.16
2023-02-12T08:27:10.560Z,102429.06
2023-02-12T08:29:37.867Z,102423.72
2023-02-12T08:32:06.344Z,102431.66
2023-02-12T08:34:35.910Z,102430.25
2023-02-12T08:37:05.131Z,102434.56
2023-02-12T08:39:32.401Z,102429.16
2023-02-12T08:42:00.641Z,102430.81
2023-02-12T08:44:28.335Z,102427.75
2023-02-12T08:46:56.495Z,102437.72
2023-02-12T08:49:25.609Z,102435.88
2023-02-12T08:51:55.887Z,102444.78
2023-02-12T08:54:24.310Z,102449.16
2023-02-12T08:56:52.012Z,102445.94
2023-02-12T08:59:19.276Z,102448.19
2023-02-12T09:01:46.588Z,102447.47
2023-02-12T09:04:15.546Z,102450.13
2023-02-12T09:06:42.856Z,102461.94
2023-02-12T09:09:11.489Z,102462.56
2023-02-12T09:11:38.767Z,102465.09
2023-02-12T09:14:06.850Z,102459.72
2023-02-12T09:16:35.061Z,102473.16
2023-02-12T09:19:02.725Z,102469.34
2023-02-12T09:21:31.009Z,102467.41
2023-02-12T09:23:58.417Z,102471.78
2023-02-12T09:26:27.108Z,102465.53
2023-02-12T09:28:54.984Z,102462.81
2023-02-12T09:31:26.546Z,102475.69
2023-02-12T09:33:55.329Z,102474.81
2023-02-12T09:36:23.068Z,102476.44
2023-02-12T09:38:50.380Z,102482.34
2023-02-12T09:41:39.982Z,102481.19
2023-02-12T09:44:08.214Z,102474.22
2023-02-12T09:46:40.023Z,102485.47
2023-02-12T09:49:10.109Z,102484.66
2023-02-12T09:51:39.233Z,102488.22
2023-02-12T09:54:08.033Z,102487.69
2023-02-12T09:56:39.045Z,102490.03
2023-02-12T09:59:07.438Z,102490.88
2023-02-12T10:01:35.258Z,102492.13
2023-02-12T10:04:05.918Z,102488.69
2023-02-12T10:06:36.431Z,102488.00
2023-02-12T10:09:11.151Z,102496.94
2023-02-12T10:13:55.744Z,102495.44
2023-02-12T10:16:38.515Z,102506.72
2023-02-12T10:19:20.279Z,102500.56
2023-02-12T10:22:00.521Z,102501.44
2023-02-12T10:24:44.996Z,102502.69
2023-02-12T10:27:15.451Z,102503.75
2023-02-12T10:29:48.216Z,102499.03
2023-02-12T10:32:25.118Z,102501.94
2023-02-12T10:34:54.609Z,102495.66
2023-02-12T10:37:33.324Z,102499.22
2023-02-12T10:40:06.022Z,102494.69
2023-02-12T10:42:39.642Z,102488.03
2023-02-12T10:45:14.862Z,102492.00
2023-02-12T10:47:42.796Z,102491.97
2023-02-12T10:50:20.436Z,102492.13
2023-02-12T10:52:53.211Z,102497.47
2023-02-12T10:55:29.370Z,102489.53
2023-02-12T10:57:58.122Z,102490.28
2023-02-12T11:00:31.333Z,102490.97
2023-02-12T11:03:05.095Z,102487.31
2023-02-12T11:05:35.858Z,102493.25
2023-02-12T11:08:04.188Z,102491.88
2023-02-12T11:10:34.360Z,102484.13
2023-02-12T11:13:02.857Z,102484.47
2023-02-12T11:15:47.116Z,102491.94
2023-02-12T11:18:25.859Z,102479.53
2023-02-12T11:20:57.206Z,102483.75
2023-02-12T11:23:27.644Z,102484.19
2023-02-12T11:25:58.910Z,102475.69
2023-02-12T11:28:26.953Z,102464.41
2023-02-12T11:30:58.569Z,102477.97
2023-02-12T11:33:29.513Z,102476.84
2023-02-12T11:36:00.437Z,102479.53
2023-02-12T11:38:32.114Z,102477.00
2023-02-12T11:41:04.525Z,102478.94
2023-02-12T11:43:36.860Z,102479.81
2023-02-12T11:46:08.508Z,102480.94
2023-02-12T11:48:39.000Z,102481.66
2023-02-12T11:51:09.942Z,102478.41
2023-02-12T11:53:41.810Z,102471.47
2023-02-12T11:56:11.775Z,102473.22
2023-02-12T11:58:40.710Z,102475.84
2023-02-12T12:01:19.628Z,102479.16
2023-02-12T12:03:54.712Z,102474.63
2023-02-12T12:06:32.184Z,102468.56
2023-02-12T12:09:06.160Z,102469.91
2023-02-12T12:11:43.272Z,102471.03
2023-02-12T12:14:18.810Z,102459.34
2023-02-12T12:17:13.512Z,102469.28
2023-02-12T12:19:54.765Z,102470.44
2023-02-12T12:22:32.077Z,102466.56
2023-02-12T12:25:06.473Z,102480.63
2023-02-12T12:27:58.640Z,102473.88
2023-02-12T12:30:42.013Z,102464.91
2023-02-12T12:33:18.446Z,102467.56
2023-02-12T12:35:55.028Z,102463.69
2023-02-12T12:38:34.015Z,102468.53
2023-02-12T12:41:09.370Z,102457.22
2023-02-12T12:43:50.259Z,102464.25
2023-02-12T12:46:35.359Z,102456.16
2023-02-12T12:49:28.196Z,102447.72
2023-02-12T12:52:08.934Z,102457.28
2023-02-12T12:54:53.120Z,102453.38
2023-02-12T12:57:31.850Z,102449.72
2023-02-12T13:00:25.209Z,102451.56
2023-02-12T13:03:14.094Z,102449.25
2023-02-12T13:06:12.158Z,102447.13
2023-02-12T13:08:53.363Z,102452.47
2023-02-12T13:11:35.458Z,102443.44
2023-02-12T13:14:15.392Z,102449.19
2023-02-12T13:16:48.845Z,102447.69
2023-02-12T13:19:24.650Z,102449.03
2023-02-12T13:22:03.084Z,102452.06
2023-02-12T13:24:39.897Z,102445.66
2023-02-12T13:27:15.170Z,102443.03
2023-02-12T13:29:47.385Z,102441.84
2023-02-12T13:32:20.988Z,102443.81
2023-02-12T13:34:49.464Z,102445.66
2023-02-12T13:37:21.530Z,102447.22
2023-02-12T13:39:51.142Z,102446.34
2023-02-12T13:42:36.436Z,102443.50
2023-02-12T13:45:20.612Z,102447.56
2023-02-12T13:48:00.220Z,102454.03
2023-02-12T13:50:39.109Z,102448.84
2023-02-12T13:53:18.451Z,102440.91
2023-02-12T13:56:02.690Z,102446.38
2023-02-12T13:58:40.935Z,102452.41
2023-02-12T14:01:11.435Z,102448.06
2023-02-12T14:03:40.079Z,102448.22
2023-02-12T14:06:16.800Z,102448.63
2023-02-12T14:08:51.299Z,102445.47
2023-02-12T14:11:22.820Z,102449.38
2023-02-12T14:13:55.516Z,102444.13
2023-02-12T14:16:40.050Z,102455.34
2023-02-12T14:19:37.923Z,102456.97
2023-02-12T14:22:12.499Z,102458.75
2023-02-12T14:24:50.318Z,102457.81
2023-02-12T14:27:26.109Z,102457.50
2023-02-12T14:30:40.208Z,102452.13
2023-02-12T14:33:21.775Z,102452.69
2023-02-12T14:35:52.464Z,102457.44
2023-02-12T14:38:53.099Z,102454.06
2023-02-12T14:41:37.813Z,102451.50
2023-02-12T14:44:42.225Z,102459.09
2023-02-12T14:47:17.253Z,102461.22
2023-02-12T14:49:48.348Z,102461.09
2023-02-12T14:52:19.501Z,102464.44
2023-02-12T14:54:50.590Z,102461.06
2023-02-12T14:57:26.132Z,102460.00
2023-02-12T14:59:58.148Z,102461.09
2023-02-12T15:02:29.852Z,102465.47
2023-02-12T15:05:00.926Z,102469.03
2023-02-12T15:07:32.750Z,102466.44
2023-02-12T15:10:09.990Z,102462.81
2023-02-12T15:12:42.253Z,102458.25
2023-02-12T15:15:16.474Z,102462.78
2023-02-12T15:17:57.419Z,102464.44
2023-02-12T15:20:31.483Z,102461.97
2023-02-12T15:22:58.870Z,102462.69
2023-02-12T15:25:28.532Z,102461.84
2023-02-12T15:28:00.607Z,102466.53
2023-02-12T15:30:31.466Z,102463.97
2023-02-12T15:33:01.887Z,102468.47
2023-02-12T15:35:31.861Z,102462.34
2023-02-12T15:38:01.167Z,102468.75
2023-02-12T15:40:29.764Z,102463.28
2023-02-12T15:43:00.287Z,102475.22
2023-02-12T15:45:29.618Z,102473.41
2023-02-12T15:48:12.920Z,102465.91
2023-02-12T15:50:50.396Z,102471.13
2023-02-12T15:53:19.101Z,102469.31
2023-02-12T15:55:48.501Z,102464.97
2023-02-12T15:58:23.941Z,102457.91
2023-02-12T16:00:52.549Z,102464.06
2023-02-12T16:03:22.241Z,102463.16
2023-02-12T16:05:50.793Z,102457.00
2023-02-12T16:08:21.006Z,102466.78
2023-02-12T16:10:50.682Z,102463.28
2023-02-12T16:13:20.300Z,102468.59
2023-02-12T16:16:05.353Z,102466.00
2023-02-12T16:18:32.932Z,102470.66
2023-02-12T16:21:06.004Z,102478.69
2023-02-12T16:23:33.603Z,102482.28
2023-02-12T16:26:01.045Z,102485.91
2023-02-12T16:28:30.807Z,102487.72
2023-02-12T16:31:10.498Z,102493.97
2023-02-12T16:33:45.282Z,102480.50
2023-02-12T16:36:16.962Z,102489.47
2023-02-12T16:38:46.836Z,102494.78
2023-02-12T16:41:24.434Z,102501.03
2023-02-12T16:44:14.095Z,102503.69
2023-02-12T16:46:50.961Z,102509.09
2023-02-12T16:49:20.204Z,102503.75
2023-02-12T16:51:48.753Z,102505.56
2023-02-12T16:54:31.166Z,102505.50
2023-02-12T16:56:59.323Z,102509.16
2023-02-12T16:59:31.095Z,102503.00
2023-02-12T17:02:02.124Z,102510.09
2023-02-12T17:04:29.838Z,102511.13
2023-02-12T17:06:57.940Z,102503.13
2023-02-12T17:09:25.520Z,102508.47
2023-02-12T17:11:52.962Z,102502.25
2023-02-12T17:14:21.863Z,102502.31
2023-02-12T17:16:49.871Z,102513.84
2023-02-12T17:19:18.788Z,102513.84
2023-02-12T17:21:49.439Z,102513.81
2023-02-12T17:24:21.913Z,102516.47
2023-02-12T17:26:52.092Z,102518.66
2023-02-12T17:29:20.711Z,102531.81
2023-02-12T17:31:48.728Z,102524.97
2023-02-12T17:34:18.566Z,102526.91
2023-02-12T17:36:46.048Z,102528.84
2023-02-12T17:39:15.622Z,102529.78
2023-02-12T17:41:44.408Z,102535.19
2023-02-12T17:44:13.858Z,102541.94
2023-02-12T17:46:41.348Z,102539.25
2023-02-12T17:49:08.838Z,102544.72
2023-02-12T17:51:37.619Z,102544.59
2023-02-12T17:54:05.578Z,102542.97
2023-02-12T17:56:33.587Z,102548.31
2023-02-12T17:59:01.560Z,102556.47
2023-02-12T18:01:29.237Z,102552.06
2023-02-12T18:03:58.752Z,102551.31
2023-02-12T18:06:29.101Z,102559.41
2023-02-12T18:08:58.756Z,102549.59
2023-02-12T18:11:27.622Z,102549.50
2023-02-12T18:13:56.534Z,102554.88
2023-02-12T18:16:25.106Z,102553.91
2023-02-12T18:18:52.543Z,102549.50
2023-02-12T18:21:20.037Z,102552.19
2023-02-12T18:23:47.863Z,102547.94
2023-02-12T18:26:18.663Z,102549.72
2023-02-12T18:28:47.216Z,102548.78
2023-02-12T18:31:15.208Z,102556.13
2023-02-12T18:33:42.743Z,102551.59
2023-02-12T18:36:11.955Z,102554.28
2023-02-12T18:38:41.565Z,102554.28
2023-02-12T18:41:10.779Z,102554.13
2023-02-12T18:46:32.540Z,102550.56
2023-02-12T18:49:00.445Z,102546.00
2023-02-12T18:51:30.821Z,102550.66
2023-02-12T18:54:07.311Z,102537.19
2023-02-12T18:56:36.551Z,102544.38
2023-02-12T18:59:06.696Z,102543.50
2023-02-12T19:01:35.366Z,102540.94
2023-02-12T19:04:04.541Z,102535.63
2023-02-12T19:06:33.509Z,102543.50
2023-02-12T19:09:03.620Z,102542.75
2023-02-12T19:11:31.918Z,102533.69
2023-02-12T19:13:59.349Z,102536.56
2023-02-12T19:16:28.450Z,102534.78
2023-02-12T19:18:59.932Z,102531.31
2023-02-12T19:21:27.423Z,102536.78
2023-02-12T19:23:54.966Z,102535.97
2023-02-12T19:26:23.267Z,102532.47
2023-02-12T19:28:50.835Z,102536.16
2023-02-12T19:31:20.367Z,102533.53
2023-02-12T19:33:50.908Z,102534.56
2023-02-12T19:36:20.556Z,102528.13
2023-02-12T19:38:49.013Z,102531.66
2023-02-12T19:41:18.503Z,102522.16
2023-02-12T19:43:46.623Z,102527.69
2023-02-12T19:46:15.304Z,102527.91
2023-02-12T19:48:43.637Z,102521.78
2023-02-12T19:51:15.712Z,102519.09
2023-02-12T19:53:43.153Z,102524.28
2023-02-12T19:56:10.747Z,102524.00
2023-02-12T19:58:38.851Z,102518.25
2023-02-12T20:01:10.293Z,102527.66
2023-02-12T20:03:38.030Z,102518.91
2023-02-12T20:06:09.477Z,102522.66
2023-02-12T20:08:39.154Z,102518.34
2023-02-12T20:11:07.624Z,102520.09
2023-02-12T20:13:35.574Z,102519.31
2023-02-12T20:16:04.067Z,102515.50
2023-02-12T20:18:31.493Z,102519.75
2023-02-12T20:20:59.392Z,102518.81
2023-02-12T20:23:26.895Z,102514.28
2023-02-12T20:25:55.681Z,102516.34
2023-02-12T20:28:23.121Z,102519.88
2023-02-12T20:30:50.657Z,102522.28
2023-02-12T20:33:22.020Z,102524.97
2023-02-12T20:35:56.468Z,102530.34
2023-02-12T20:38:24.025Z,102523.31
2023-02-12T20:40:51.409Z,102537.50
2023-02-12T20:43:20.089Z,102531.31
2023-02-12T20:45:47.769Z,102529.84
2023-02-12T20:48:15.133Z,102535.97
2023-02-12T20:50:42.512Z,102530.72
2023-02-12T20:53:09.891Z,102531.66
2023-02-12T20:55:37.259Z,102534.34
2023-02-12T20:58:05.406Z,102529.66
2023-02-12T21:00:35.169Z,102539.16
2023-02-12T21:03:03.922Z,102531.19
2023-02-12T21:05:31.804Z,102531.88
2023-02-12T21:07:59.977Z,102523.09
2023-02-12T21:10:29.597Z,102528.63
2023-02-12T21:12:57.096Z,102532.28
2023-02-12T21:15:24.525Z,102530.53
2023-02-12T21:17:53.451Z,102520.81
2023-02-12T21:20:21.082Z,102528.38
2023-02-12T21:22:48.443Z,102532.28
2023-02-12T21:25:15.855Z,102524.50
2023-02-12T21:27:43.243Z,102532.63
2023-02-12T21:30:11.114Z,102538.03
2023-02-12T21:32:38.513Z,102538.66
2023-02-12T21:35:08.188Z,102527.19
2023-02-12T21:37:35.597Z,102526.41
2023-02-12T21:40:02.973Z,102527.53
2023-02-12T21:42:31.121Z,102533.66
2023-02-12T21:44:58.534Z,102530.13
2023-02-12T22:01:59.019Z,102536.63
2023-02-12T22:04:27.046Z,102525.97
2023-02-12T22:06:56.382Z,102523.31
2023-02-12T22:09:24.594Z,102520.72
2023-02-12T22:11:53.012Z,102523.47
2023-02-12T22:14:21.662Z,102527.09
2023-02-12T22:16:49.306Z,102521.91
2023-02-12T22:19:18.116Z,102522.06
2023-02-12T22:21:45.547Z,102525.72
2023-02-12T22:24:14.784Z,102523.00
2023-02-12T22:26:42.286Z,102530.91
2023-02-12T22:29:13.329Z,102524.47
2023-02-12T22:31:42.765Z,102534.78
2023-02-12T22:34:13.213Z,102537.66
2023-02-12T22:36:42.960Z,102543.16
2023-02-12T22:39:13.569Z,102543.72
2023-02-12T22:41:41.858Z,102537.28
2023-02-12T22:44:11.616Z,102541.81
2023-02-12T22:46:38.993Z,102540.16
2023-02-12T22:49:06.447Z,102541.88
2023-02-12T22:51:35.898Z,102543.69
2023-02-12T22:54:06.123Z,102546.28
2023-02-12T22:56:34.368Z,102547.22
2023-02-12T22:59:02.984Z,102543.63
2023-02-12T23:01:31.424Z,102540.16
2023-02-12T23:03:59.284Z,102541.03
2023-02-12T23:06:29.180Z,102533.03
2023-02-12T23:08:58.932Z,102532.09
2023-02-12T23:11:28.956Z,102531.25
2023-02-12T23:13:56.767Z,102526.91
2023-02-12T23:16:24.572Z,102533.97
2023-02-12T23:18:56.213Z,102525.03
2023-02-12T23:21:24.367Z,102519.69
2023-02-12T23:23:51.618Z,102518.84
2023-02-12T23:26:19.000Z,102518.84
2023-02-12T23:28:47.709Z,102516.94
2023-02-12T23:31:15.449Z,102524.75
2023-02-12T23:33:42.869Z,102521.78
2023-02-12T23:36:10.792Z,102525.91
2023-02-12T23:38:38.269Z,102517.88
2023-02-12T23:41:05.919Z,102520.75
2023-02-12T23:43:33.669Z,102514.69
2023-02-12T23:46:02.541Z,102512.78
2023-02-12T23:48:29.930Z,102519.97
2023-02-12T23:50:57.936Z,102512.13
2023-02-12T23:53:25.486Z,102501.47
2023-02-12T23:55:52.975Z,102513.34
2023-02-12T23:58:20.704Z,102507.72
